Essex Center, Vermont
Current Conditions -  °F | °C
As of 12:54 AM on Sunday 21 Dec 2014 (Local Time) from KBTV Reporting Station
Haze Haze  
Wind Chill: 19°   Ceiling: 200
Heat Index: 19°   Visibility: 3mi
Dew Point: 16°   Wind: 3mph
Humidity: 88%   Direction: 80°E
Pressure: 30.32"   Gusts: NA
Location:  44.5358°N, 73.0548°W
Report Text: KBTV 210554Z 08003KT 3SM BR OVC002 M07/M09 A3032 RMK AO2 SLP273 T10721089 11072 21089 55003
Loading
Personal Weather Stations






























Interactive Weather Map New forecast layout! Learn more

10-Day Weather Forecast

Advertisements
Track Severe Weather on mobile